Ravalli, Montana
Current Conditions -  °F | °C
As of 2:53 AM on Tuesday 27 Jan 2015 (Local Time) from KMSO Reporting Station
Haze Haze  
Wind Chill: 23°   Ceiling: Unl
Heat Index: 23°   Visibility: 4mi
Dew Point: 23°   Wind: 0mph
Humidity: 100%   Direction: NA
Pressure: 30.08"   Gusts: NA
Location:  47.27°N, 114.17°W
Report Text: KMSO 270953Z AUTO 00000KT 4SM BR CLR M05/M05 A3008 RMK AO2 SLP214 I1000 T10501050
Loading
Personal Weather Stations






























Interactive Weather Map New forecast layout! Learn more

10-Day Weather Forecast

Advertisements
Track Severe Weather on mobile